Time;durP1;ratioP1;P1;durP2;ratioP2;P2;SDS_P1;SDS_P2;PMS_P1;PMS_P2;Temp;Humidity;BMP_temperature;BMP_pressure;BME280_temperature;BME280_humidity;BME280_pressure;Samples;Min_cycle;Max_cycle;Signal;HPM_P1;HPM_P2
2021/07/16 00:01:41;;;;;;;2.92;1.85;;;20.50;99.90;;;;;;4839173;29;20420;-77
2021/07/16 00:04:06;;;;;;;1.75;1.65;;;20.40;99.90;;;;;;4837333;29;20843;-77
2021/07/16 00:06:32;;;;;;;1.60;1.50;;;20.40;99.90;;;;;;4853934;29;20884;-77
2021/07/16 00:08:58;;;;;;;1.58;1.48;;;20.40;99.90;;;;;;4856525;29;21045;-77
2021/07/16 00:11:24;;;;;;;1.95;1.77;;;20.40;99.90;;;;;;4837590;29;20491;-77
2021/07/16 00:13:49;;;;;;;1.80;1.70;;;20.30;99.90;;;;;;4849544;29;20418;-77
2021/07/16 00:16:15;;;;;;;1.60;1.50;;;20.20;99.90;;;;;;4851488;29;20521;-77
2021/07/16 00:18:42;;;;;;;1.83;1.73;;;20.20;99.90;;;;;;4852919;29;20414;-77
2021/07/16 00:21:08;;;;;;;1.88;1.77;;;20.10;99.90;;;;;;4853209;29;20475;-77
2021/07/16 00:23:33;;;;;;;1.80;1.70;;;20.00;99.90;;;;;;4852636;29;20415;-77
2021/07/16 00:25:59;;;;;;;2.00;1.80;;;20.00;99.90;;;;;;4839235;29;20414;-77
2021/07/16 00:28:24;;;;;;;1.98;1.88;;;19.90;99.90;;;;;;4817906;29;20414;-77
2021/07/16 00:30:50;;;;;;;1.87;1.77;;;19.90;99.90;;;;;;4835460;29;20422;-77
2021/07/16 00:33:16;;;;;;;2.15;1.95;;;19.90;99.90;;;;;;4836351;29;20926;-77
2021/07/16 00:35:42;;;;;;;2.40;1.50;;;19.90;99.90;;;;;;4837274;29;20411;-77
2021/07/16 00:38:07;;;;;;;1.90;1.80;;;19.90;99.90;;;;;;4820594;29;22370;-77
2021/07/16 00:40:33;;;;;;;1.80;1.70;;;19.90;99.90;;;;;;4835665;29;20446;-77
2021/07/16 00:42:59;;;;;;;2.10;1.90;;;19.80;99.90;;;;;;4852380;29;20415;-77
2021/07/16 00:45:24;;;;;;;1.70;1.60;;;19.80;99.90;;;;;;4837613;29;20434;-77
2021/07/16 00:47:50;;;;;;;1.77;1.67;;;19.80;99.90;;;;;;4840672;29;20402;-77
2021/07/16 00:50:20;;;;;;;1.80;1.70;;;19.80;99.90;;;;;;4851924;29;20434;-78
2021/07/16 00:52:45;;;;;;;2.00;1.80;;;19.80;99.90;;;;;;4851728;29;20408;-77
2021/07/16 00:55:11;;;;;;;6.57;2.05;;;19.80;99.90;;;;;;4836371;29;20839;-77
2021/07/16 00:57:37;;;;;;;3.78;1.50;;;19.80;99.90;;;;;;4836758;29;20418;-77
2021/07/16 01:00:05;;;;;;;1.97;1.87;;;19.80;99.90;;;;;;4836844;29;20941;-77
2021/07/16 01:02:31;;;;;;;2.45;1.90;;;19.70;99.90;;;;;;4833987;29;20426;-77
2021/07/16 01:04:56;;;;;;;1.63;1.52;;;19.70;99.90;;;;;;4837919;29;20491;-77
2021/07/16 01:07:22;;;;;;;2.00;1.80;;;19.70;99.90;;;;;;4834260;29;20485;-77
2021/07/16 01:09:50;;;;;;;2.10;1.92;;;19.80;99.90;;;;;;4856725;29;20424;-77
2021/07/16 01:12:17;;;;;;;1.70;1.60;;;19.80;99.90;;;;;;4855361;29;20925;-77
2021/07/16 01:14:42;;;;;;;1.80;1.60;;;19.70;99.90;;;;;;4839899;29;20429;-77
2021/07/16 01:17:08;;;;;;;2.00;1.90;;;19.80;99.90;;;;;;4839543;29;20407;-76
2021/07/16 01:20:12;;;;;;;2.03;1.90;;;19.70;99.90;;;;;;4854865;29;20422;-77
2021/07/16 01:22:38;;;;;;;2.03;1.92;;;19.70;99.90;;;;;;4836948;29;20410;-77
2021/07/16 01:25:06;;;;;;;1.90;1.80;;;19.60;99.90;;;;;;4823474;29;20428;-77
2021/07/16 01:27:32;;;;;;;2.10;2.00;;;19.60;99.90;;;;;;4833886;29;20873;-77
2021/07/16 01:29:58;;;;;;;1.87;1.77;;;19.50;99.90;;;;;;4835629;29;20429;-77
2021/07/16 01:32:24;;;;;;;1.58;1.48;;;19.60;99.90;;;;;;4818486;29;20435;-77
2021/07/16 01:34:49;;;;;;;1.60;1.50;;;19.60;99.90;;;;;;4837910;29;20855;-78
2021/07/16 01:37:15;;;;;;;1.88;1.77;;;19.50;99.90;;;;;;4809250;29;20432;-77
2021/07/16 01:39:41;;;;;;;2.20;2.00;;;19.50;99.90;;;;;;4851272;29;20494;-77
2021/07/16 01:42:10;;;;;;;1.73;1.63;;;19.50;99.90;;;;;;4854078;29;20410;-77
2021/07/16 01:44:37;;;;;;;1.77;1.67;;;19.50;99.90;;;;;;4839233;29;20437;-77
2021/07/16 01:47:03;;;;;;;1.90;1.67;;;19.50;99.90;;;;;;4841046;29;20422;-77
2021/07/16 01:49:29;;;;;;;2.28;2.08;;;19.40;99.90;;;;;;4840240;29;20512;-77
2021/07/16 01:51:54;;;;;;;2.47;2.27;;;19.40;99.90;;;;;;4854663;29;20481;-77
2021/07/16 01:54:20;;;;;;;2.10;2.00;;;19.40;99.90;;;;;;4854740;29;20434;-77
2021/07/16 01:56:46;;;;;;;1.97;1.87;;;19.30;99.90;;;;;;4853787;29;20434;-77
2021/07/16 01:59:12;;;;;;;2.20;2.00;;;19.20;99.90;;;;;;4820740;29;20793;-77
2021/07/16 02:01:37;;;;;;;1.90;1.80;;;19.20;99.90;;;;;;4836386;29;20450;-77
2021/07/16 02:04:03;;;;;;;2.07;1.97;;;19.20;99.90;;;;;;4815640;29;20432;-77
2021/07/16 02:06:30;;;;;;;1.83;1.73;;;19.20;99.90;;;;;;4857783;29;20840;-77
2021/07/16 02:08:56;;;;;;;1.95;1.85;;;19.10;99.90;;;;;;4827565;29;20799;-78
2021/07/16 02:11:22;;;;;;;2.17;2.07;;;19.10;99.90;;;;;;4837991;29;20802;-77
2021/07/16 02:13:49;;;;;;;2.17;1.75;;;19.00;99.90;;;;;;4838850;29;20519;-77
2021/07/16 02:16:16;;;;;;;2.20;2.07;;;19.10;99.90;;;;;;4838354;29;20418;-77
2021/07/16 02:18:46;;;;;;;2.00;1.90;;;19.00;99.90;;;;;;4830826;29;20963;-76
2021/07/16 02:21:11;;;;;;;2.27;2.07;;;19.00;99.90;;;;;;4838714;29;20416;-77
2021/07/16 02:23:37;;;;;;;2.08;1.95;;;19.00;99.90;;;;;;4855617;29;20927;-78
2021/07/16 02:26:02;;;;;;;1.80;1.70;;;18.90;99.90;;;;;;4855741;29;20449;-77
2021/07/16 02:28:29;;;;;;;1.90;1.80;;;18.90;99.90;;;;;;4840640;29;20420;-77
2021/07/16 02:30:56;;;;;;;2.10;1.90;;;18.90;99.90;;;;;;4819423;29;20410;-77
2021/07/16 02:33:22;;;;;;;2.08;1.95;;;18.80;99.90;;;;;;4837535;29;20418;-77
2021/07/16 02:35:47;;;;;;;1.80;1.70;;;18.80;99.90;;;;;;4837600;29;20418;-77
2021/07/16 02:38:13;;;;;;;2.10;2.00;;;18.70;99.90;;;;;;4838387;29;20417;-77
2021/07/16 02:40:40;;;;;;;2.00;1.90;;;18.70;99.90;;;;;;4838400;29;20498;-77
2021/07/16 02:43:06;;;;;;;5.90;2.13;;;18.70;99.90;;;;;;4820976;29;20421;-76
2021/07/16 02:45:32;;;;;;;1.95;1.85;;;18.70;99.90;;;;;;4837759;29;20491;-77
2021/07/16 02:47:58;;;;;;;1.90;1.80;;;18.70;99.90;;;;;;4828966;29;20449;-77
2021/07/16 02:50:43;;;;;;;2.03;1.90;;;18.70;99.90;;;;;;4836534;29;20417;-77
2021/07/16 02:53:09;;;;;;;2.40;1.90;;;18.60;99.90;;;;;;4837942;29;20410;-77
2021/07/16 02:55:38;;;;;;;1.80;1.70;;;18.60;99.90;;;;;;4829164;29;20465;-77
2021/07/16 02:58:04;;;;;;;2.08;1.98;;;18.60;99.90;;;;;;4853100;29;20414;-77
2021/07/16 03:00:30;;;;;;;2.05;1.95;;;18.50;99.90;;;;;;4841395;29;20426;-77
2021/07/16 03:02:56;;;;;;;1.97;1.87;;;18.50;99.90;;;;;;4822777;29;20752;-78
2021/07/16 03:05:23;;;;;;;1.80;1.70;;;18.50;99.90;;;;;;4819843;29;20950;-79
2021/07/16 03:07:49;;;;;;;2.25;2.08;;;18.50;99.90;;;;;;4846516;29;20412;-78
2021/07/16 03:10:17;;;;;;;2.70;2.50;;;18.50;99.90;;;;;;4841205;29;20901;-77
2021/07/16 03:12:43;;;;;;;2.60;2.40;;;18.40;99.90;;;;;;4840103;29;20429;-77
2021/07/16 03:15:11;;;;;;;2.20;2.10;;;18.30;99.90;;;;;;4826043;29;20445;-77
2021/07/16 03:17:37;;;;;;;2.67;2.47;;;18.30;99.90;;;;;;4843202;29;20414;-77
2021/07/16 03:20:10;;;;;;;2.40;2.20;;;18.20;99.90;;;;;;4837340;29;20505;-76
2021/07/16 03:22:36;;;;;;;2.40;2.20;;;18.20;99.90;;;;;;4838046;29;20493;-77
2021/07/16 03:25:06;;;;;;;2.40;2.20;;;18.30;99.90;;;;;;4834931;29;20442;-77
2021/07/16 03:27:31;;;;;;;2.40;2.20;;;18.20;99.90;;;;;;4841778;29;20414;-77
2021/07/16 03:29:57;;;;;;;2.30;2.10;;;18.20;99.90;;;;;;4838111;29;20415;-77
2021/07/16 03:32:23;;;;;;;2.43;2.23;;;18.20;99.90;;;;;;4834487;29;20414;-77
2021/07/16 03:34:48;;;;;;;1.80;1.70;;;18.20;99.90;;;;;;4839326;29;20418;-77
2021/07/16 03:37:14;;;;;;;2.97;2.43;;;18.20;99.90;;;;;;4833361;29;20406;-77
2021/07/16 03:39:41;;;;;;;2.70;2.50;;;18.20;99.90;;;;;;4852416;29;20417;-77
2021/07/16 03:42:06;;;;;;;3.67;1.77;;;18.20;99.90;;;;;;4838017;29;20410;-77
2021/07/16 03:44:32;;;;;;;2.20;2.10;;;18.20;99.90;;;;;;4852586;29;21177;-78
2021/07/16 03:46:58;;;;;;;2.10;1.92;;;18.20;99.90;;;;;;4855228;29;20409;-77
2021/07/16 03:49:26;;;;;;;2.10;2.00;;;18.20;99.90;;;;;;4834521;29;20407;-77
2021/07/16 03:51:52;;;;;;;2.47;2.28;;;18.30;99.90;;;;;;4819246;29;20420;-77
2021/07/16 03:54:18;;;;;;;2.25;2.05;;;18.30;99.90;;;;;;4838371;29;20419;-77
2021/07/16 03:56:44;;;;;;;3.42;2.42;;;18.30;99.90;;;;;;4811553;29;20421;-77
2021/07/16 03:59:09;;;;;;;2.17;2.07;;;18.30;99.90;;;;;;4840543;29;20935;-77
2021/07/16 04:01:35;;;;;;;2.88;2.60;;;18.30;99.90;;;;;;4839882;29;20787;-77
2021/07/16 04:04:01;;;;;;;2.65;2.45;;;18.30;99.90;;;;;;4828259;29;20424;-76
2021/07/16 04:06:26;;;;;;;2.50;2.30;;;18.30;99.90;;;;;;4842454;29;20414;-77
2021/07/16 04:09:00;;;;;;;2.70;2.50;;;18.30;99.90;;;;;;4857199;29;20417;-77
2021/07/16 04:11:26;;;;;;;2.50;2.30;;;18.30;99.90;;;;;;4853089;29;20398;-78
2021/07/16 04:13:51;;;;;;;2.30;2.20;;;18.30;99.90;;;;;;4855524;29;20421;-78
2021/07/16 04:16:17;;;;;;;2.28;2.17;;;18.30;99.90;;;;;;4843011;29;20422;-79
2021/07/16 04:18:42;;;;;;;2.10;2.00;;;18.30;99.90;;;;;;4837117;29;20417;-79
2021/07/16 04:21:08;;;;;;;2.23;2.13;;;18.30;99.90;;;;;;4822417;29;20425;-79
2021/07/16 04:23:34;;;;;;;2.00;1.90;;;18.40;99.90;;;;;;4853482;29;21063;-78
2021/07/16 04:25:59;;;;;;;2.20;2.10;;;18.50;99.90;;;;;;4832091;29;20906;-78
2021/07/16 04:28:25;;;;;;;2.50;1.77;;;18.50;99.90;;;;;;4863430;29;20914;-79
2021/07/16 04:30:51;;;;;;;3.03;2.13;;;18.60;99.90;;;;;;4838381;29;20429;-78
2021/07/16 04:33:16;;;;;;;2.60;2.40;;;18.60;99.90;;;;;;4829606;29;20410;-79
2021/07/16 04:35:42;;;;;;;2.10;2.00;;;18.70;99.90;;;;;;4852763;29;20406;-79
2021/07/16 04:38:08;;;;;;;2.15;2.05;;;18.70;99.90;;;;;;4821786;29;20394;-78
2021/07/16 04:40:34;;;;;;;3.60;2.73;;;18.70;99.90;;;;;;4851084;29;20810;-78
2021/07/16 04:43:00;;;;;;;2.17;2.08;;;18.80;99.90;;;;;;4854094;29;21269;-79
2021/07/16 04:45:26;;;;;;;2.50;2.30;;;18.80;99.90;;;;;;4842882;29;20494;-79
2021/07/16 04:47:52;;;;;;;2.40;2.20;;;18.90;99.90;;;;;;4857748;29;20874;-77
2021/07/16 04:50:17;;;;;;;2.60;2.40;;;18.90;99.90;;;;;;4839254;29;20952;-78
2021/07/16 04:52:45;;;;;;;2.92;2.72;;;19.00;99.90;;;;;;4840470;29;20502;-78
2021/07/16 04:55:11;;;;;;;2.50;2.30;;;19.20;99.90;;;;;;4840468;29;20417;-78
2021/07/16 04:57:37;;;;;;;2.45;2.35;;;19.10;99.90;;;;;;4837074;29;20465;-78
2021/07/16 05:00:09;;;;;;;2.83;2.63;;;19.20;99.90;;;;;;4841880;29;20409;-78
2021/07/16 05:02:35;;;;;;;2.60;2.40;;;19.40;99.90;;;;;;4829442;29;20460;-77
2021/07/16 05:05:02;;;;;;;3.80;2.15;;;19.40;99.90;;;;;;4843034;29;20565;-78
2021/07/16 05:07:27;;;;;;;2.85;2.55;;;19.50;99.90;;;;;;4845266;29;20420;-78
2021/07/16 05:09:53;;;;;;;2.63;2.43;;;19.70;99.90;;;;;;4824101;29;21088;-77
2021/07/16 05:12:19;;;;;;;2.30;2.17;;;19.70;99.90;;;;;;4828404;29;20439;-77
2021/07/16 05:14:44;;;;;;;2.60;2.40;;;19.90;99.90;;;;;;4852085;29;20491;-78
2021/07/16 05:17:10;;;;;;;2.70;2.50;;;20.00;99.90;;;;;;4858702;29;20412;-79
2021/07/16 05:19:35;;;;;;;2.50;2.30;;;20.10;99.90;;;;;;4840596;29;20414;-77
2021/07/16 05:22:01;;;;;;;2.63;2.43;;;20.20;99.90;;;;;;4823078;29;21285;-79
2021/07/16 05:24:27;;;;;;;2.50;2.30;;;20.30;99.90;;;;;;4854840;29;20924;-79
2021/07/16 05:26:53;;;;;;;2.17;2.08;;;20.40;99.90;;;;;;4859735;29;20766;-79
2021/07/16 05:29:18;;;;;;;2.27;2.10;;;20.70;99.90;;;;;;4813390;29;20831;-79
2021/07/16 05:31:44;;;;;;;3.67;2.25;;;20.90;99.90;;;;;;4848772;29;20464;-79
2021/07/16 05:34:10;;;;;;;4.93;1.90;;;21.10;99.90;;;;;;4822661;29;20416;-79
2021/07/16 05:36:35;;;;;;;2.47;2.28;;;21.30;99.90;;;;;;4835750;29;20933;-79
2021/07/16 05:39:05;;;;;;;2.53;2.33;;;21.50;99.90;;;;;;4840976;29;20438;-79
2021/07/16 05:41:31;;;;;;;1.93;1.77;;;21.60;99.90;;;;;;4841890;29;20922;-79
2021/07/16 05:43:57;;;;;;;2.90;2.70;;;21.80;99.90;;;;;;4855682;29;21002;-79
2021/07/16 05:46:23;;;;;;;2.53;2.30;;;21.90;99.90;;;;;;4846726;29;20401;-80
2021/07/16 05:48:49;;;;;;;2.00;1.90;;;22.00;99.90;;;;;;4833268;29;20429;-80
2021/07/16 05:51:15;;;;;;;2.30;2.10;;;22.20;99.90;;;;;;4840192;29;20414;-78
2021/07/16 05:53:41;;;;;;;2.95;2.40;;;22.30;99.90;;;;;;4839326;29;20966;-79
2021/07/16 05:56:07;;;;;;;2.43;2.23;;;22.50;99.90;;;;;;4854440;29;20418;-79
2021/07/16 05:58:32;;;;;;;2.33;2.13;;;22.50;99.90;;;;;;4856974;29;20471;-79
2021/07/16 06:00:58;;;;;;;2.20;2.07;;;22.60;99.90;;;;;;4856457;29;20417;-79
2021/07/16 06:03:24;;;;;;;2.40;2.20;;;22.80;99.90;;;;;;4839469;29;20444;-79
2021/07/16 06:05:49;;;;;;;2.35;2.22;;;22.90;99.90;;;;;;4854503;29;20399;-79
2021/07/16 06:08:15;;;;;;;2.30;2.10;;;23.00;99.90;;;;;;4839406;29;20492;-79
2021/07/16 06:10:41;;;;;;;2.30;2.10;;;23.20;99.90;;;;;;4854816;29;20406;-80
2021/07/16 06:13:06;;;;;;;2.35;2.15;;;23.30;99.90;;;;;;4842338;29;20414;-79
2021/07/16 06:15:32;;;;;;;2.72;2.53;;;23.30;99.90;;;;;;4837112;29;20400;-79
2021/07/16 06:17:58;;;;;;;2.50;2.30;;;23.60;99.90;;;;;;4839970;29;20407;-79
2021/07/16 06:20:23;;;;;;;2.10;2.00;;;23.70;99.90;;;;;;4838983;29;20414;-80
2021/07/16 06:22:49;;;;;;;2.30;2.17;;;23.80;99.90;;;;;;4853740;29;20406;-79
2021/07/16 06:25:17;;;;;;;1.97;1.87;;;24.00;99.90;;;;;;4838427;29;20454;-79
2021/07/16 06:27:43;;;;;;;3.17;2.30;;;24.10;99.90;;;;;;4845727;29;20498;-79
2021/07/16 06:30:09;;;;;;;2.30;2.20;;;24.20;99.90;;;;;;4858002;29;20496;-79
2021/07/16 06:32:35;;;;;;;2.50;2.30;;;24.30;99.90;;;;;;4834519;29;20501;-79
2021/07/16 06:35:01;;;;;;;2.47;2.27;;;24.30;99.90;;;;;;4838688;29;20981;-79
2021/07/16 06:37:27;;;;;;;2.97;2.78;;;24.50;99.90;;;;;;4855841;29;20952;-79
2021/07/16 06:39:52;;;;;;;2.50;2.30;;;24.50;99.90;;;;;;4853941;29;20417;-79
2021/07/16 06:42:18;;;;;;;2.30;2.10;;;24.70;99.90;;;;;;4853956;29;20419;-79
2021/07/16 06:44:44;;;;;;;2.40;2.20;;;24.80;99.90;;;;;;4854163;29;20418;-80
2021/07/16 06:47:10;;;;;;;2.45;2.25;;;25.10;99.90;;;;;;4844458;29;20435;-79
2021/07/16 06:49:36;;;;;;;2.10;2.00;;;25.10;99.90;;;;;;4826840;29;21016;-79
2021/07/16 06:52:02;;;;;;;2.53;2.13;;;25.20;99.90;;;;;;4835248;29;20418;-79
2021/07/16 06:54:28;;;;;;;2.50;2.30;;;25.20;99.90;;;;;;4838935;29;20582;-79
2021/07/16 06:56:53;;;;;;;1.70;1.60;;;25.10;99.90;;;;;;4838466;29;20989;-80
2021/07/16 06:59:20;;;;;;;2.10;2.00;;;25.20;99.90;;;;;;4810807;29;20570;-79
2021/07/16 07:01:46;;;;;;;2.13;1.92;;;25.30;99.90;;;;;;4852917;29;20430;-80
2021/07/16 07:04:17;;;;;;;1.70;1.60;;;25.50;99.90;;;;;;4839422;29;20410;-79
2021/07/16 07:06:43;;;;;;;2.00;1.90;;;25.70;99.90;;;;;;4825967;29;20416;-80
2021/07/16 07:09:09;;;;;;;3.08;2.17;;;25.90;99.90;;;;;;4821582;29;20450;-80
2021/07/16 07:11:36;;;;;;;2.10;2.00;;;26.40;99.90;;;;;;4839676;29;20434;-80
2021/07/16 07:14:02;;;;;;;1.80;1.70;;;26.50;99.90;;;;;;4819793;29;20411;-80
2021/07/16 07:16:27;;;;;;;2.40;2.20;;;26.70;99.90;;;;;;4826366;29;20752;-80
2021/07/16 07:18:53;;;;;;;1.97;1.87;;;26.80;99.90;;;;;;4833745;29;20458;-80
2021/07/16 07:21:21;;;;;;;2.10;2.00;;;26.90;99.90;;;;;;4823027;29;20425;-80
2021/07/16 07:23:47;;;;;;;2.40;2.13;;;27.10;99.90;;;;;;4825053;29;20494;-80
2021/07/16 07:26:12;;;;;;;2.30;2.17;;;27.20;99.90;;;;;;4825374;29;20414;-80
2021/07/16 07:28:38;;;;;;;2.10;2.00;;;27.10;99.90;;;;;;4828767;29;20406;-79
2021/07/16 07:31:04;;;;;;;2.03;1.92;;;27.20;99.90;;;;;;4837456;29;20478;-80
2021/07/16 07:33:29;;;;;;;2.13;2.03;;;27.00;99.90;;;;;;4837698;29;20406;-80
2021/07/16 07:35:56;;;;;;;2.40;2.20;;;26.90;99.90;;;;;;4806909;29;20464;-80
2021/07/16 07:38:22;;;;;;;2.40;2.20;;;26.90;99.90;;;;;;4843509;29;20406;-80
2021/07/16 07:40:47;;;;;;;1.95;1.85;;;27.10;99.90;;;;;;4838119;29;21898;-80
2021/07/16 07:43:13;;;;;;;3.90;2.20;;;27.40;99.90;;;;;;4853444;29;20402;-80
2021/07/16 07:45:38;;;;;;;1.93;1.83;;;27.60;99.90;;;;;;4838816;29;20430;-80
2021/07/16 07:48:04;;;;;;;1.90;1.80;;;27.80;99.90;;;;;;4841051;29;20415;-80
2021/07/16 07:50:30;;;;;;;1.92;1.77;;;28.10;99.90;;;;;;4824294;29;21114;-80
2021/07/16 07:52:56;;;;;;;2.33;2.20;;;28.30;99.90;;;;;;4844888;29;20422;-80
2021/07/16 07:55:23;;;;;;;2.30;2.03;;;28.40;99.90;;;;;;4844988;29;20547;-79
2021/07/16 07:57:51;;;;;;;3.08;2.20;;;28.50;99.90;;;;;;4838736;29;20410;-80
2021/07/16 08:00:18;;;;;;;2.20;2.10;;;28.60;99.90;;;;;;4809050;29;20425;-80
2021/07/16 08:02:44;;;;;;;4.28;1.90;;;29.00;99.90;;;;;;4840803;29;20472;-80
2021/07/16 08:05:11;;;;;;;2.00;1.90;;;29.10;99.90;;;;;;4815179;29;20439;-81
2021/07/16 08:07:37;;;;;;;1.92;1.83;;;29.20;99.90;;;;;;4844967;29;21737;-80
2021/07/16 08:10:13;;;;;;;1.75;1.65;;;29.40;99.90;;;;;;4839748;29;20406;-80
2021/07/16 08:12:39;;;;;;;1.92;1.73;;;29.50;99.90;;;;;;4849259;29;20432;-80
2021/07/16 08:15:06;;;;;;;1.90;1.80;;;29.70;99.90;;;;;;4838752;29;20570;-80
2021/07/16 08:17:32;;;;;;;2.08;1.98;;;29.80;99.90;;;;;;4835420;29;20424;-81
2021/07/16 08:19:58;;;;;;;2.10;2.00;;;30.00;99.90;;;;;;4835492;29;20491;-80
2021/07/16 08:22:23;;;;;;;1.90;1.80;;;30.00;99.90;;;;;;4841701;29;20438;-81
2021/07/16 08:24:49;;;;;;;1.87;1.77;;;29.90;99.90;;;;;;4857512;29;20437;-80
2021/07/16 08:27:15;;;;;;;2.28;1.75;;;30.00;99.90;;;;;;4850319;29;20924;-80
2021/07/16 08:29:40;;;;;;;1.90;1.80;;;30.30;99.90;;;;;;4844499;29;20863;-80
2021/07/16 08:32:06;;;;;;;1.80;1.67;;;30.20;99.90;;;;;;4855903;29;20966;-79
2021/07/16 08:34:32;;;;;;;1.70;1.60;;;30.30;99.90;;;;;;4842085;29;21047;-80
2021/07/16 08:36:58;;;;;;;1.83;1.73;;;30.30;99.90;;;;;;4837400;29;20413;-80
2021/07/16 08:39:23;;;;;;;1.85;1.75;;;30.50;99.90;;;;;;4824603;29;20936;-79
2021/07/16 08:41:50;;;;;;;1.97;1.87;;;30.70;99.90;;;;;;4840237;29;20482;-80
2021/07/16 08:44:16;;;;;;;1.80;1.70;;;30.80;99.90;;;;;;4846092;29;20437;-80
2021/07/16 08:46:44;;;;;;;2.25;2.05;;;31.00;99.90;;;;;;4847412;29;20475;-80
2021/07/16 08:49:09;;;;;;;2.13;1.92;;;31.10;99.90;;;;;;4839133;29;20493;-80
2021/07/16 08:51:35;;;;;;;1.92;1.73;;;31.30;99.90;;;;;;4858001;29;20505;-81
2021/07/16 08:54:01;;;;;;;1.90;1.80;;;31.30;99.90;;;;;;4840108;29;20482;-80
2021/07/16 08:56:28;;;;;;;1.77;1.60;;;31.40;99.90;;;;;;4816338;29;20419;-80
2021/07/16 08:58:54;;;;;;;2.00;1.90;;;31.50;99.90;;;;;;4828087;29;20478;-80
2021/07/16 09:01:19;;;;;;;2.63;1.60;;;31.60;99.90;;;;;;4823494;29;20964;-80
2021/07/16 09:04:07;;;;;;;1.83;1.73;;;31.70;99.90;;;;;;4842628;29;20850;-80
2021/07/16 09:06:52;;;;;;;1.77;1.67;;;31.90;99.90;;;;;;4854426;29;20428;-80
2021/07/16 09:09:24;;;;;;;1.80;1.70;;;32.00;99.90;;;;;;4863552;29;20406;-80
2021/07/16 09:11:52;;;;;;;3.70;1.70;;;32.20;99.90;;;;;;4856785;29;20418;-81
2021/07/16 09:14:28;;;;;;;1.80;1.70;;;32.10;99.90;;;;;;4840767;29;20937;-80
2021/07/16 09:17:01;;;;;;;1.70;1.60;;;32.30;99.90;;;;;;4840029;29;20591;-80
2021/07/16 09:19:47;;;;;;;1.65;1.55;;;32.40;99.90;;;;;;4820758;29;20447;-80
2021/07/16 09:22:23;;;;;;;1.70;1.60;;;32.60;99.90;;;;;;4807386;29;20481;-80
2021/07/16 09:24:59;;;;;;;2.25;1.60;;;32.70;99.90;;;;;;4840315;29;20431;-80
2021/07/16 09:27:40;;;;;;;1.63;1.50;;;32.60;99.90;;;;;;4831232;29;20466;-80
2021/07/16 09:30:13;;;;;;;1.80;1.55;;;32.70;99.90;;;;;;4841068;29;20405;-80
2021/07/16 09:32:46;;;;;;;1.50;1.40;;;33.00;99.90;;;;;;4851481;29;20424;-80
2021/07/16 09:35:33;;;;;;;1.58;1.48;;;33.50;99.90;;;;;;4826312;29;20410;-80
2021/07/16 09:38:13;;;;;;;1.60;1.50;;;33.70;99.90;;;;;;4845287;29;20470;-81
2021/07/16 09:40:39;;;;;;;1.38;1.33;;;33.30;99.90;;;;;;4837515;29;20819;-83
2021/07/16 09:43:11;;;;;;;1.70;1.60;;;32.50;99.90;;;;;;4838907;29;20926;-80
2021/07/16 09:45:37;;;;;;;1.60;1.50;;;32.60;99.90;;;;;;4841525;29;20513;-81
2021/07/16 09:48:18;;;;;;;1.55;1.45;;;32.90;99.90;;;;;;4838107;29;20419;-80
2021/07/16 09:50:44;;;;;;;1.10;1.10;;;33.20;99.90;;;;;;4851161;29;20435;-80
2021/07/16 09:53:29;;;;;;;1.50;1.40;;;33.60;99.90;;;;;;4840784;29;20414;-80
2021/07/16 09:56:31;;;;;;;1.63;1.52;;;33.50;99.90;;;;;;4837943;29;21092;-81
2021/07/16 09:59:19;;;;;;;1.70;1.60;;;33.70;99.90;;;;;;4855525;29;20410;-80
2021/07/16 10:01:48;;;;;;;1.85;1.73;;;33.60;99.90;;;;;;4832159;29;20432;-80
2021/07/16 10:04:20;;;;;;;1.37;1.30;;;33.60;99.90;;;;;;4841083;29;20415;-80
2021/07/16 10:06:47;;;;;;;1.33;1.30;;;33.90;99.90;;;;;;4843136;29;20414;-81
2021/07/16 10:09:13;;;;;;;1.45;1.35;;;34.00;99.90;;;;;;4831450;29;20426;-80
2021/07/16 10:11:39;;;;;;;1.50;1.40;;;34.30;99.90;;;;;;4852333;29;20416;-81
2021/07/16 10:14:05;;;;;;;1.20;1.20;;;34.60;99.90;;;;;;4837804;29;20416;-80
2021/07/16 10:16:33;;;;;;;1.40;1.40;;;34.80;99.90;;;;;;4831011;29;20805;-80
2021/07/16 10:18:59;;;;;;;1.40;1.30;;;34.70;99.90;;;;;;4857453;29;20402;-81
2021/07/16 10:21:25;;;;;;;1.35;1.33;;;34.50;99.70;;;;;;4856355;29;20421;-80
2021/07/16 10:23:52;;;;;;;1.70;1.60;;;34.80;99.30;;;;;;4832100;29;20448;-80
2021/07/16 10:26:21;;;;;;;1.80;1.70;;;34.80;99.30;;;;;;4839663;29;20794;-80
2021/07/16 10:28:47;;;;;;;1.40;1.30;;;35.00;98.50;;;;;;4839424;29;20438;-80
2021/07/16 10:31:33;;;;;;;1.45;1.30;;;35.10;98.50;;;;;;4821820;29;20486;-80
2021/07/16 10:34:12;;;;;;;2.72;1.50;;;35.00;99.80;;;;;;4855779;29;20548;-80
2021/07/16 10:36:44;;;;;;;1.73;1.63;;;35.20;97.20;;;;;;4828396;29;20420;-80
2021/07/16 10:39:12;;;;;;;1.63;1.52;;;35.50;97.30;;;;;;4841833;29;20421;-79
2021/07/16 10:41:40;;;;;;;3.10;1.48;;;35.80;95.60;;;;;;4825319;29;20421;-80
2021/07/16 10:44:06;;;;;;;2.17;1.60;;;35.90;95.20;;;;;;4844905;29;20420;-80
2021/07/16 10:46:44;;;;;;;1.70;1.60;;;36.20;96.90;;;;;;4808928;29;20577;-81
2021/07/16 10:49:12;;;;;;;1.80;1.70;;;36.10;94.50;;;;;;4800131;29;20496;-81
2021/07/16 10:51:39;;;;;;;1.83;1.73;;;35.80;94.30;;;;;;4829816;29;20412;-80
2021/07/16 10:54:10;;;;;;;1.58;1.48;;;35.80;94.90;;;;;;4839944;29;20422;-81
2021/07/16 10:56:42;;;;;;;1.80;1.70;;;35.60;95.50;;;;;;4823892;29;20414;-80
2021/07/16 10:59:09;;;;;;;1.92;1.83;;;35.60;94.00;;;;;;4853754;29;20509;-80
2021/07/16 11:01:37;;;;;;;2.00;1.80;;;35.60;94.80;;;;;;4824835;29;20456;-80
2021/07/16 11:04:07;;;;;;;1.98;1.88;;;35.80;95.40;;;;;;4854387;29;22823;-81
2021/07/16 11:06:47;;;;;;;1.88;1.77;;;35.80;94.80;;;;;;4835787;29;20429;-80
2021/07/16 11:09:33;;;;;;;1.90;1.80;;;35.90;94.60;;;;;;4820750;29;20469;-80
2021/07/16 11:12:21;;;;;;;1.85;1.75;;;36.00;93.10;;;;;;4839151;29;20993;-81
2021/07/16 11:14:47;;;;;;;1.60;1.50;;;35.70;93.60;;;;;;4854919;29;20411;-80
2021/07/16 11:17:32;;;;;;;1.80;1.70;;;35.80;94.20;;;;;;4856454;29;20421;-80
2021/07/16 11:20:09;;;;;;;2.83;1.80;;;35.80;93.80;;;;;;4816639;29;20930;-80
2021/07/16 11:22:34;;;;;;;1.80;1.70;;;36.10;94.10;;;;;;4815335;29;20412;-80
2021/07/16 11:25:00;;;;;;;1.80;1.70;;;36.10;92.70;;;;;;4838370;29;20448;-80
2021/07/16 11:27:26;;;;;;;1.67;1.57;;;36.10;93.40;;;;;;4854728;29;20410;-80
2021/07/16 11:29:52;;;;;;;1.90;1.80;;;36.00;93.00;;;;;;4840144;29;20406;-80
2021/07/16 11:32:25;;;;;;;1.83;1.73;;;35.90;94.20;;;;;;4838480;29;20405;-80
2021/07/16 11:34:56;;;;;;;1.80;1.70;;;36.20;93.70;;;;;;4852708;29;20419;-81
2021/07/16 11:37:30;;;;;;;1.75;1.65;;;36.50;93.00;;;;;;4835688;29;20430;-80
2021/07/16 11:40:00;;;;;;;1.70;1.60;;;36.70;91.50;;;;;;4852407;29;20421;-80
2021/07/16 11:42:27;;;;;;;1.73;1.63;;;36.40;92.00;;;;;;4849503;29;20869;-80
2021/07/16 11:44:53;;;;;;;2.35;1.85;;;36.60;90.90;;;;;;4841474;29;20466;-80
2021/07/16 11:47:20;;;;;;;1.77;1.67;;;36.70;89.40;;;;;;4839482;29;20456;-80
2021/07/16 11:49:49;;;;;;;2.75;1.90;;;36.20;92.20;;;;;;4842290;29;20410;-80
2021/07/16 11:52:16;;;;;;;1.60;1.50;;;36.50;88.90;;;;;;4854621;29;20525;-80
2021/07/16 11:54:42;;;;;;;3.17;1.52;;;36.10;90.50;;;;;;4839141;29;20814;-80
2021/07/16 11:57:08;;;;;;;1.65;1.55;;;35.80;90.80;;;;;;4839004;29;20482;-80
2021/07/16 11:59:34;;;;;;;1.60;1.50;;;35.50;90.30;;;;;;4853899;29;20493;-81
2021/07/16 12:02:12;;;;;;;1.90;1.80;;;35.30;90.30;;;;;;4843099;29;20428;-80
2021/07/16 12:04:39;;;;;;;1.88;1.77;;;34.80;90.10;;;;;;4841008;29;20426;-80
2021/07/16 12:07:05;;;;;;;1.90;1.80;;;34.40;90.30;;;;;;4840801;29;20813;-81
2021/07/16 12:09:31;;;;;;;1.92;1.83;;;34.60;91.10;;;;;;4832079;29;20419;-80
2021/07/16 12:12:03;;;;;;;1.83;1.73;;;34.60;91.30;;;;;;4853821;29;21062;-80
2021/07/16 12:14:31;;;;;;;2.00;1.90;;;34.70;91.20;;;;;;4823474;29;20450;-80
2021/07/16 12:16:57;;;;;;;1.70;1.60;;;34.70;93.10;;;;;;4826575;29;20781;-80
2021/07/16 12:19:22;;;;;;;2.80;1.63;;;35.60;92.70;;;;;;4827204;29;20413;-80
2021/07/16 12:21:48;;;;;;;2.03;1.93;;;36.30;91.00;;;;;;4857799;29;20966;-80
2021/07/16 12:24:14;;;;;;;2.47;1.97;;;36.60;89.60;;;;;;4839691;29;20438;-80
2021/07/16 12:26:39;;;;;;;4.33;2.00;;;37.20;91.60;;;;;;4839666;29;20418;-80
2021/07/16 12:29:07;;;;;;;1.93;1.83;;;37.30;85.40;;;;;;4828118;29;20407;-81
2021/07/16 12:31:34;;;;;;;2.57;2.00;;;37.60;91.90;;;;;;4839600;29;20467;-80
2021/07/16 12:34:01;;;;;;;2.20;1.90;;;37.90;82.00;;;;;;4841145;29;20428;-81
2021/07/16 12:36:32;;;;;;;1.88;1.77;;;38.10;82.40;;;;;;4856137;29;20410;-80
2021/07/16 12:38:58;;;;;;;1.90;1.80;;;38.40;79.70;;;;;;4838108;29;20429;-80
2021/07/16 12:41:24;;;;;;;1.80;1.70;;;38.40;81.30;;;;;;4855287;29;20449;-80
2021/07/16 12:43:50;;;;;;;1.90;1.80;;;38.30;83.80;;;;;;4854341;29;20431;-80
2021/07/16 12:46:25;;;;;;;1.90;1.80;;;37.70;80.60;;;;;;4846311;29;20410;-80
2021/07/16 12:48:50;;;;;;;1.92;1.73;;;37.90;83.20;;;;;;4831693;29;20401;-80
2021/07/16 12:51:17;;;;;;;2.28;2.03;;;38.30;73.90;;;;;;4835670;29;20887;-80